ティフアナ の空港の天気 - METARとTAF

ヘネラル・アベラルド・L・ロドリゲス国際空港 ( MMTJ / TIJ ) - メキシコ バハ・カリフォルニア州ティフアナ
飛行場実況気象(Metar)
観測時間03/08 20:40 PST (03/09 04:40 UTC)
風向・風速北西 1m/s
視程10km以上
天気現象
少しの雲 雲底高度 910m
少しの雲 雲底高度 6100m
気温12℃
湿度88%
気圧1023hPa
METARMMTJ 090440Z 31002KT 8SM FEW030 FEW200 12/10 A3021 RMK 8/108
過去の天気等 Google飛行場航空写真 Wunderground天気予報

過去48時間のMETAR

飛行場予報(TAF)
発表時間: 3/08 19:19 PST (3/09 03:19 UTC)
予報対象時間: 8日22時 PST ~ 10日4時 PST
風向・風速西北西 3m/s
視程10km以上
全天の4割程度の雲 雲底高度 910m
全天の8割程度の雲 雲底高度 7620m
9日7時 PST から
風向・風速西北西 6m/s
視程10km以上
なし
9日10時 PST ~ 9日14時 PST に一時的に
風向・風速西 8m/s 瞬間風速 13m/s
9日19時 PST から
風向・風速西北西 5m/s
視程10km以上
全天の8割程度の雲 雲底高度 610m
10日0時 PST から 確率 40% で
視程6440m
天気現象
TAF MMTJ 090319Z 0906/1012 30005KT P6SM SCT030 BKN250 TX15/0922Z TN12/0912Z
FM091500 30012KT P6SM SKC
TEMPO 0918/0922 28015G25KT
FM100300 30010KT P6SM BKN020
PROB40 1008/1012 4SM RA